Time;durP1;ratioP1;P1;durP2;ratioP2;P2;SDS_P1;SDS_P2;PMS_P1;PMS_P2;Temp;Humidity;BMP_temperature;BMP_pressure;BME280_temperature;BME280_humidity;BME280_pressure;Samples;Min_cycle;Max_cycle;Signal;HPM_P1;HPM_P2
2022/08/09 00:00:11;;;;;;;2.30;2.10;;;15.20;73.60;;;;;;5033662;28;20402;-69
2022/08/09 00:02:37;;;;;;;2.67;2.47;;;15.20;93.10;;;;;;5033279;28;20226;-76
2022/08/09 00:05:04;;;;;;;3.00;2.43;;;15.10;83.50;;;;;;5033630;28;20425;-76
2022/08/09 00:07:29;;;;;;;2.27;2.03;;;15.10;89.20;;;;;;5032025;28;20517;-69
2022/08/09 00:09:55;;;;;;;5.30;2.37;;;15.10;85.00;;;;;;5033400;28;20899;-75
2022/08/09 00:12:21;;;;;;;2.30;2.10;;;15.00;84.50;;;;;;5033288;28;20186;-69
2022/08/09 00:14:47;;;;;;;2.50;2.30;;;15.00;59.60;;;;;;5033570;28;20473;-76
2022/08/09 00:17:12;;;;;;;2.43;2.20;;;15.00;93.80;;;;;;5032382;28;20515;-70
2022/08/09 00:19:38;;;;;;;3.60;2.53;;;14.90;93.90;;;;;;5033712;28;20639;-69
2022/08/09 00:22:04;;;;;;;2.53;2.10;;;14.90;93.80;;;;;;5032142;28;20229;-76
2022/08/09 00:24:30;;;;;;;3.00;2.37;;;14.90;93.80;;;;;;5033461;28;20182;-76
2022/08/09 00:27:00;;;;;;;2.70;2.50;;;14.80;94.90;;;;;;5031720;28;20167;-75
2022/08/09 00:29:26;;;;;;;2.57;2.20;;;14.80;93.50;;;;;;5033415;28;20445;-74
2022/08/09 00:31:52;;;;;;;3.50;2.70;;;14.80;93.80;;;;;;5032961;28;20410;-76
2022/08/09 00:34:18;;;;;;;2.60;2.40;;;14.80;93.80;;;;;;5033135;28;20472;-76
2022/08/09 00:36:44;;;;;;;2.43;2.23;;;14.70;94.00;;;;;;5032492;28;20395;-68
2022/08/09 00:39:10;;;;;;;2.40;2.20;;;14.70;93.80;;;;;;5032773;28;20446;-69
2022/08/09 00:41:36;;;;;;;3.10;2.90;;;14.60;93.80;;;;;;5033424;28;20529;-69
2022/08/09 00:44:02;;;;;;;3.00;2.37;;;14.60;93.60;;;;;;5032679;28;20806;-76
2022/08/09 00:46:28;;;;;;;2.20;2.07;;;14.60;91.00;;;;;;5033663;28;20524;-76
2022/08/09 00:48:54;;;;;;;2.77;2.57;;;14.60;91.90;;;;;;5037138;28;20192;-69
2022/08/09 00:51:20;;;;;;;3.17;2.50;;;14.50;93.70;;;;;;5037204;28;20195;-69
2022/08/09 00:53:46;;;;;;;2.47;2.27;;;14.50;93.70;;;;;;5036633;28;20425;-70
2022/08/09 00:56:13;;;;;;;2.40;2.20;;;14.50;99.90;;;;;;5035902;28;20179;-72
2022/08/09 00:58:39;;;;;;;2.43;2.23;;;14.40;97.70;;;;;;5037187;28;20419;-69
2022/08/09 01:01:28;;;;;;;3.30;2.47;;;14.40;95.00;;;;;;5035524;28;20783;-76
2022/08/09 01:03:58;;;;;;;2.70;2.50;;;14.40;94.70;;;;;;5035375;28;20778;-76
2022/08/09 01:06:32;;;;;;;2.50;2.30;;;14.30;93.60;;;;;;5035548;28;20414;-76
2022/08/09 01:09:21;;;;;;;2.80;2.53;;;14.30;99.80;;;;;;5036642;28;20445;-68
2022/08/09 01:12:05;;;;;;;2.30;2.10;;;14.30;95.40;;;;;;5036701;28;20418;-68
2022/08/09 01:15:01;;;;;;;2.73;2.50;;;14.30;99.90;;;;;;5036825;28;20394;-69
2022/08/09 01:17:34;;;;;;;2.70;2.50;;;14.30;93.60;;;;;;5035625;28;20433;-68
2022/08/09 01:20:05;;;;;;;2.53;2.33;;;14.30;96.10;;;;;;5036815;28;20394;-76
2022/08/09 01:23:08;;;;;;;2.70;2.50;;;14.20;98.30;;;;;;5036102;28;20414;-75
2022/08/09 01:25:58;;;;;;;5.40;2.93;;;14.10;98.30;;;;;;5036250;28;20727;-69
2022/08/09 01:28:24;;;;;;;3.53;2.50;;;14.00;99.90;;;;;;5035953;28;20418;-76
2022/08/09 01:30:54;;;;;;;3.07;2.87;;;13.90;99.90;;;;;;5036437;28;20475;-76
2022/08/09 01:33:24;;;;;;;3.47;2.77;;;13.90;99.90;;;;;;5036606;28;20821;-68
2022/08/09 01:36:02;;;;;;;3.30;2.57;;;13.90;99.90;;;;;;5036008;28;20406;-68
2022/08/09 01:38:33;;;;;;;2.93;2.60;;;13.90;99.90;;;;;;5036289;28;20497;-76
2022/08/09 01:41:05;;;;;;;3.30;3.10;;;13.90;99.90;;;;;;5034270;28;20430;-75
2022/08/09 01:43:36;;;;;;;3.10;2.90;;;13.90;99.90;;;;;;5035950;28;20422;-69
2022/08/09 01:46:03;;;;;;;2.80;2.60;;;13.90;99.90;;;;;;5033690;28;20589;-74
2022/08/09 01:48:30;;;;;;;3.17;2.97;;;13.90;99.90;;;;;;5036060;28;20422;-75
2022/08/09 01:50:57;;;;;;;3.20;2.90;;;13.90;99.90;;;;;;5035747;28;20751;-68
2022/08/09 01:53:24;;;;;;;3.20;2.90;;;13.80;99.90;;;;;;5036198;28;20391;-75
2022/08/09 01:55:52;;;;;;;4.97;3.13;;;13.80;99.90;;;;;;5034337;28;20437;-68
2022/08/09 01:58:19;;;;;;;4.30;2.93;;;13.80;99.90;;;;;;5015131;28;20442;-68
2022/08/09 02:00:46;;;;;;;2.90;2.60;;;13.70;99.90;;;;;;5031278;28;20422;-76
2022/08/09 02:03:15;;;;;;;3.73;3.43;;;13.70;99.90;;;;;;5034543;28;20418;-68
2022/08/09 02:05:43;;;;;;;3.43;3.13;;;13.70;99.90;;;;;;5035535;28;20778;-68
2022/08/09 02:08:13;;;;;;;2.50;2.30;;;13.60;99.90;;;;;;5034842;28;20434;-76
2022/08/09 02:10:43;;;;;;;8.73;2.90;;;13.60;99.90;;;;;;5035324;28;20453;-72
2022/08/09 02:13:11;;;;;;;3.40;2.50;;;13.60;99.90;;;;;;5035331;28;20416;-76
2022/08/09 02:15:40;;;;;;;3.27;2.97;;;13.60;99.90;;;;;;5035542;28;20402;-68
2022/08/09 02:18:07;;;;;;;4.53;2.80;;;13.50;99.90;;;;;;5033174;28;20430;-76
2022/08/09 02:20:38;;;;;;;3.10;2.90;;;13.50;99.90;;;;;;5035342;28;20437;-68
2022/08/09 02:23:03;;;;;;;2.60;2.40;;;13.50;99.90;;;;;;5034298;28;20456;-68
2022/08/09 02:25:33;;;;;;;3.57;3.27;;;13.50;99.90;;;;;;5035333;28;20414;-76
2022/08/09 02:28:05;;;;;;;3.47;2.73;;;13.50;99.90;;;;;;5034573;28;20194;-75
2022/08/09 02:30:46;;;;;;;8.53;5.33;;;13.50;99.90;;;;;;5035036;28;20458;-68
2022/08/09 02:33:16;;;;;;;4.93;3.70;;;13.50;99.90;;;;;;5034316;28;20491;-76
2022/08/09 02:35:42;;;;;;;3.60;3.30;;;13.50;99.90;;;;;;5035212;28;20410;-68
2022/08/09 02:38:10;;;;;;;4.47;3.07;;;13.50;99.90;;;;;;5034265;28;20909;-68
2022/08/09 02:40:38;;;;;;;2.93;2.73;;;13.50;99.90;;;;;;5035046;28;20414;-76
2022/08/09 02:43:07;;;;;;;6.30;3.90;;;13.50;99.90;;;;;;5035219;28;20395;-68
2022/08/09 02:45:36;;;;;;;3.43;3.13;;;13.50;99.90;;;;;;5033722;28;20764;-68
2022/08/09 02:48:07;;;;;;;2.87;2.67;;;13.50;99.90;;;;;;5033737;28;20422;-77
2022/08/09 02:50:52;;;;;;;7.00;3.37;;;13.50;99.90;;;;;;5033543;28;20446;-76
2022/08/09 02:53:24;;;;;;;3.23;2.93;;;13.40;99.90;;;;;;5033620;28;20926;-68
2022/08/09 02:55:52;;;;;;;3.80;3.37;;;13.40;99.90;;;;;;5034481;28;20539;-68
2022/08/09 02:58:21;;;;;;;5.90;3.80;;;13.40;99.90;;;;;;5034183;28;20419;-68
2022/08/09 03:00:49;;;;;;;3.83;3.33;;;13.40;99.90;;;;;;5034571;28;20429;-76
2022/08/09 03:03:16;;;;;;;3.20;2.80;;;13.30;99.90;;;;;;5033367;28;20410;-71
2022/08/09 03:05:43;;;;;;;3.70;3.03;;;13.30;99.90;;;;;;5034426;28;20422;-76
2022/08/09 03:08:11;;;;;;;3.20;2.80;;;13.30;99.90;;;;;;5031592;28;20439;-68
2022/08/09 03:10:39;;;;;;;2.93;2.70;;;13.30;99.90;;;;;;5034374;28;20458;-69
2022/08/09 03:13:06;;;;;;;3.67;3.37;;;13.20;99.90;;;;;;5033731;28;20406;-68
2022/08/09 03:15:32;;;;;;;3.70;3.40;;;13.20;99.90;;;;;;5034130;28;20429;-72
2022/08/09 03:17:59;;;;;;;8.70;3.73;;;13.20;99.90;;;;;;5033588;28;20792;-68
2022/08/09 03:20:26;;;;;;;3.10;2.90;;;13.20;99.90;;;;;;5033214;28;20519;-75
2022/08/09 03:22:53;;;;;;;3.00;2.80;;;13.10;99.90;;;;;;5034336;28;20769;-76
2022/08/09 03:25:19;;;;;;;3.53;3.23;;;13.10;99.90;;;;;;5032767;28;20430;-75
2022/08/09 03:27:50;;;;;;;3.10;2.90;;;13.10;99.90;;;;;;5032045;28;20413;-68
2022/08/09 03:30:17;;;;;;;6.70;3.30;;;13.00;99.90;;;;;;5033981;28;20432;-68
2022/08/09 03:32:44;;;;;;;4.10;2.93;;;13.00;99.90;;;;;;5034253;28;20373;-76
2022/08/09 03:35:10;;;;;;;4.10;3.00;;;12.90;99.90;;;;;;5032577;28;20422;-67
2022/08/09 03:37:37;;;;;;;3.63;3.40;;;12.90;99.90;;;;;;5033115;28;20419;-68
2022/08/09 03:40:03;;;;;;;3.57;3.00;;;12.90;99.90;;;;;;5033694;28;20422;-68
2022/08/09 03:42:29;;;;;;;3.80;3.40;;;12.90;99.90;;;;;;5032726;28;20497;-68
2022/08/09 03:44:54;;;;;;;4.40;4.00;;;12.90;99.90;;;;;;5033600;28;20509;-75
2022/08/09 03:47:20;;;;;;;3.37;3.10;;;12.90;99.90;;;;;;5031944;28;20687;-68
2022/08/09 03:49:48;;;;;;;3.53;3.23;;;12.90;99.90;;;;;;5033542;28;20525;-68
2022/08/09 03:52:15;;;;;;;3.17;2.97;;;12.90;99.90;;;;;;5032838;28;20183;-67
2022/08/09 03:54:42;;;;;;;3.50;3.27;;;12.90;99.90;;;;;;5033707;28;20449;-69
2022/08/09 03:57:12;;;;;;;3.13;2.87;;;12.80;99.90;;;;;;5032851;28;20410;-68
2022/08/09 03:59:38;;;;;;;6.23;3.43;;;12.80;99.90;;;;;;5033001;28;20413;-68
2022/08/09 04:02:04;;;;;;;5.20;4.47;;;12.80;99.90;;;;;;5033681;28;20464;-68
2022/08/09 04:04:31;;;;;;;3.63;3.30;;;12.80;99.90;;;;;;5032377;28;20793;-69
2022/08/09 04:06:57;;;;;;;3.60;2.90;;;12.80;99.90;;;;;;5031507;28;20418;-68
2022/08/09 04:09:24;;;;;;;3.30;2.87;;;12.80;99.90;;;;;;5033274;28;20422;-76
2022/08/09 04:11:49;;;;;;;3.20;2.70;;;12.80;99.90;;;;;;5033353;28;20259;-77
2022/08/09 04:14:20;;;;;;;3.93;3.30;;;12.80;99.90;;;;;;5032270;28;20458;-76
2022/08/09 04:16:45;;;;;;;3.03;2.73;;;12.80;99.90;;;;;;5032245;28;20538;-76
2022/08/09 04:19:12;;;;;;;3.60;3.30;;;12.70;99.90;;;;;;5031597;28;20417;-75
2022/08/09 04:21:39;;;;;;;3.80;3.50;;;12.70;99.90;;;;;;5032948;28;20160;-68
2022/08/09 04:24:05;;;;;;;5.47;4.10;;;12.80;99.90;;;;;;5033257;28;20416;-68
2022/08/09 04:26:31;;;;;;;3.37;3.07;;;12.80;99.90;;;;;;5032692;28;20377;-68
2022/08/09 04:28:56;;;;;;;3.30;2.80;;;12.80;99.90;;;;;;5031961;28;20902;-68
2022/08/09 04:31:22;;;;;;;3.37;3.17;;;12.90;99.90;;;;;;5033449;28;20203;-76
2022/08/09 04:33:48;;;;;;;4.10;3.70;;;12.90;99.90;;;;;;5033226;28;20199;-74
2022/08/09 04:36:13;;;;;;;3.17;2.87;;;12.90;99.90;;;;;;5031635;28;20254;-68
2022/08/09 04:38:39;;;;;;;3.67;3.37;;;12.90;99.90;;;;;;5033423;28;20191;-76
2022/08/09 04:41:05;;;;;;;3.47;3.17;;;12.90;99.90;;;;;;5032045;28;20168;-76
2022/08/09 04:43:30;;;;;;;4.00;3.70;;;13.00;99.90;;;;;;5031938;28;20180;-76
2022/08/09 04:45:56;;;;;;;3.20;3.00;;;13.00;99.90;;;;;;5031649;28;20198;-75
2022/08/09 04:48:21;;;;;;;3.07;2.87;;;13.00;99.90;;;;;;5032214;28;20266;-76
2022/08/09 04:50:47;;;;;;;3.47;3.17;;;13.10;99.90;;;;;;5031954;28;20242;-68
2022/08/09 04:53:13;;;;;;;3.90;3.60;;;13.10;99.90;;;;;;5032502;28;20180;-76
2022/08/09 04:55:40;;;;;;;3.67;3.47;;;13.10;99.90;;;;;;5033103;28;20230;-68
2022/08/09 04:58:06;;;;;;;3.97;3.00;;;13.20;99.90;;;;;;5030794;28;20413;-69
2022/08/09 05:00:35;;;;;;;3.60;3.30;;;13.20;99.90;;;;;;5031846;28;20464;-76
2022/08/09 05:03:03;;;;;;;4.20;3.83;;;13.20;99.90;;;;;;5031560;28;20171;-68
2022/08/09 05:05:28;;;;;;;3.50;3.20;;;13.30;99.90;;;;;;5031710;28;20425;-68
2022/08/09 05:07:55;;;;;;;4.83;3.30;;;13.30;99.90;;;;;;5032428;28;20430;-69
2022/08/09 05:10:21;;;;;;;4.07;3.70;;;13.30;99.90;;;;;;5032642;28;20222;-76
2022/08/09 05:12:46;;;;;;;3.20;3.00;;;13.40;99.90;;;;;;5032582;28;20878;-68
2022/08/09 05:15:12;;;;;;;4.97;4.47;;;13.40;99.90;;;;;;5031622;28;20418;-68
2022/08/09 05:17:38;;;;;;;3.33;3.10;;;13.50;99.90;;;;;;5032223;28;20198;-68
2022/08/09 05:20:05;;;;;;;3.50;3.20;;;13.50;99.90;;;;;;5032822;28;20203;-68
2022/08/09 05:22:30;;;;;;;4.10;3.70;;;13.60;99.90;;;;;;5032971;28;20398;-74
2022/08/09 05:24:56;;;;;;;2.83;2.63;;;13.70;99.90;;;;;;5031652;28;20426;-68
2022/08/09 05:27:22;;;;;;;4.23;3.60;;;13.70;99.90;;;;;;5030544;28;20262;-69
2022/08/09 05:29:47;;;;;;;3.33;3.03;;;13.80;99.90;;;;;;5031238;28;20199;-76
2022/08/09 05:32:13;;;;;;;3.50;3.20;;;13.90;99.90;;;;;;5035067;28;20643;-69
2022/08/09 05:34:39;;;;;;;3.73;3.20;;;13.90;99.90;;;;;;5036557;28;20168;-75
2022/08/09 05:37:05;;;;;;;3.60;3.30;;;14.00;99.90;;;;;;5035635;28;20914;-76
2022/08/09 05:39:35;;;;;;;4.10;3.10;;;14.10;99.90;;;;;;5034660;28;20180;-77
2022/08/09 05:42:01;;;;;;;4.50;3.93;;;14.10;99.90;;;;;;5035015;28;20809;-75
2022/08/09 05:44:27;;;;;;;4.20;3.80;;;14.20;99.90;;;;;;5034251;28;20422;-71
2022/08/09 05:46:53;;;;;;;3.50;3.20;;;14.20;99.90;;;;;;5034995;28;20213;-70
2022/08/09 05:49:18;;;;;;;5.73;3.60;;;14.30;99.90;;;;;;5035776;28;20545;-72
2022/08/09 05:51:44;;;;;;;3.43;3.13;;;14.40;99.90;;;;;;5034783;28;20497;-71
2022/08/09 05:54:10;;;;;;;3.77;3.43;;;14.40;99.90;;;;;;5034351;28;20259;-70
2022/08/09 05:56:36;;;;;;;3.20;2.93;;;14.50;99.90;;;;;;5033798;28;20172;-71
2022/08/09 05:59:02;;;;;;;3.10;2.80;;;14.60;99.90;;;;;;5034376;28;20612;-67
2022/08/09 06:01:28;;;;;;;2.90;2.70;;;14.60;99.90;;;;;;5035675;28;20175;-75
2022/08/09 06:03:55;;;;;;;4.80;2.67;;;14.70;99.90;;;;;;5035481;28;20422;-68
2022/08/09 06:06:22;;;;;;;2.70;2.40;;;14.80;99.90;;;;;;5035040;28;21211;-75
2022/08/09 06:08:48;;;;;;;3.37;3.07;;;14.90;99.90;;;;;;5034289;28;20452;-75
2022/08/09 06:11:14;;;;;;;3.03;2.83;;;15.20;99.90;;;;;;5034487;28;20450;-68
2022/08/09 06:13:39;;;;;;;2.90;2.70;;;15.50;99.90;;;;;;5035516;28;20415;-68
2022/08/09 06:16:05;;;;;;;3.93;2.77;;;15.70;99.90;;;;;;5034981;28;20160;-75
2022/08/09 06:18:33;;;;;;;5.83;2.90;;;15.90;99.90;;;;;;5035350;28;20278;-68
2022/08/09 06:20:59;;;;;;;3.33;3.07;;;16.10;99.90;;;;;;5034023;28;20423;-76
2022/08/09 06:23:26;;;;;;;3.93;2.40;;;16.30;99.90;;;;;;5035431;28;20457;-68
2022/08/09 06:25:52;;;;;;;3.50;3.20;;;16.40;99.90;;;;;;5035283;28;20402;-72
2022/08/09 06:28:17;;;;;;;2.30;2.20;;;16.50;99.90;;;;;;5033590;28;20794;-75
2022/08/09 06:30:43;;;;;;;2.50;2.00;;;16.60;99.90;;;;;;5034314;28;20218;-68
2022/08/09 06:33:09;;;;;;;3.00;2.80;;;16.70;99.90;;;;;;5033862;28;20179;-76
2022/08/09 06:35:34;;;;;;;3.53;2.10;;;16.70;99.90;;;;;;5035431;28;20164;-69
2022/08/09 06:38:00;;;;;;;3.23;2.80;;;16.80;99.90;;;;;;5033667;28;20278;-75
2022/08/09 06:40:26;;;;;;;3.10;2.10;;;16.80;99.90;;;;;;5035395;28;20616;-68
2022/08/09 06:42:52;;;;;;;2.77;2.57;;;17.00;99.90;;;;;;5033753;28;20425;-76
2022/08/09 06:45:18;;;;;;;3.80;2.23;;;17.10;99.90;;;;;;5033780;28;20269;-72
2022/08/09 06:47:44;;;;;;;5.73;2.60;;;17.10;99.90;;;;;;5033603;28;20877;-75
2022/08/09 06:50:10;;;;;;;2.90;2.20;;;17.20;99.90;;;;;;5034687;28;20450;-71
2022/08/09 06:52:39;;;;;;;2.60;2.40;;;17.30;99.90;;;;;;5035113;28;20167;-75
2022/08/09 06:55:06;;;;;;;3.30;2.03;;;17.30;99.90;;;;;;5034922;28;20398;-69
2022/08/09 06:57:31;;;;;;;4.40;2.37;;;17.40;99.90;;;;;;5034219;28;20476;-69
2022/08/09 06:59:57;;;;;;;2.63;2.43;;;17.50;99.90;;;;;;5035019;28;20922;-68
2022/08/09 07:02:23;;;;;;;5.30;2.40;;;17.60;99.90;;;;;;5034928;28;20179;-75
2022/08/09 07:04:49;;;;;;;2.23;2.00;;;17.70;99.90;;;;;;5034780;28;20249;-75
2022/08/09 07:07:14;;;;;;;2.27;2.07;;;17.70;99.90;;;;;;5032574;28;20248;-68
2022/08/09 07:09:41;;;;;;;3.60;2.23;;;17.80;99.90;;;;;;5034788;28;20571;-68
2022/08/09 07:12:07;;;;;;;2.30;2.10;;;17.80;99.90;;;;;;5034886;28;20621;-76
2022/08/09 07:14:32;;;;;;;2.50;2.30;;;17.90;99.90;;;;;;5034232;28;20405;-76
2022/08/09 07:16:58;;;;;;;3.53;2.27;;;17.90;99.90;;;;;;5033929;28;20406;-69
2022/08/09 07:19:23;;;;;;;2.80;2.60;;;18.00;99.90;;;;;;5034323;28;20167;-68
2022/08/09 07:21:50;;;;;;;2.27;2.07;;;18.00;99.90;;;;;;5033213;28;20588;-68
2022/08/09 07:24:16;;;;;;;3.93;2.17;;;18.10;99.90;;;;;;5034621;28;20557;-68
2022/08/09 07:26:42;;;;;;;2.53;1.80;;;18.20;99.90;;;;;;5032451;28;20465;-75
2022/08/09 07:29:08;;;;;;;2.57;2.10;;;18.20;99.90;;;;;;5034333;28;20188;-75
2022/08/09 07:31:34;;;;;;;2.50;2.30;;;18.30;99.90;;;;;;5032849;28;20285;-76
2022/08/09 07:33:59;;;;;;;4.20;2.73;;;18.40;99.90;;;;;;5033941;28;20887;-75
2022/08/09 07:36:26;;;;;;;2.80;2.60;;;18.40;99.90;;;;;;5033510;28;20172;-68
2022/08/09 07:38:53;;;;;;;2.67;2.30;;;18.60;99.90;;;;;;5034320;28;20187;-68
2022/08/09 07:41:19;;;;;;;2.70;2.50;;;18.70;99.90;;;;;;5034159;28;20887;-75
2022/08/09 07:43:45;;;;;;;1.80;1.70;;;18.80;99.90;;;;;;5034164;28;20460;-76
2022/08/09 07:46:10;;;;;;;3.87;2.27;;;18.90;99.90;;;;;;5032336;28;20191;-68
2022/08/09 07:48:36;;;;;;;2.90;2.27;;;19.00;99.90;;;;;;5033898;28;20253;-75
2022/08/09 07:51:02;;;;;;;4.90;1.97;;;19.10;99.90;;;;;;5033404;28;20284;-68
2022/08/09 07:53:28;;;;;;;3.07;2.10;;;19.20;99.90;;;;;;5033864;28;20226;-68
2022/08/09 07:55:54;;;;;;;3.63;2.27;;;19.20;99.90;;;;;;5033472;28;20524;-76
2022/08/09 07:58:19;;;;;;;6.33;2.67;;;19.20;99.90;;;;;;5033189;28;20183;-75
2022/08/09 08:00:45;;;;;;;3.77;1.90;;;19.30;99.90;;;;;;5033887;28;20233;-75
2022/08/09 08:03:11;;;;;;;3.83;2.10;;;19.30;99.90;;;;;;5032802;28;20179;-68
2022/08/09 08:05:36;;;;;;;1.97;1.77;;;19.30;99.90;;;;;;5033664;28;20650;-68
2022/08/09 08:08:02;;;;;;;7.93;1.97;;;19.40;99.90;;;;;;5031708;28;20198;-76
2022/08/09 08:10:29;;;;;;;2.60;1.80;;;19.40;99.90;;;;;;5033419;28;20195;-75
2022/08/09 08:12:55;;;;;;;3.93;2.13;;;19.50;99.50;;;;;;5033603;28;20225;-69
2022/08/09 08:15:20;;;;;;;2.00;1.90;;;19.50;95.60;;;;;;5032555;28;20410;-76
2022/08/09 08:17:50;;;;;;;6.13;1.70;;;19.60;95.60;;;;;;5032665;28;20517;-69
2022/08/09 08:20:19;;;;;;;1.73;1.63;;;19.70;96.20;;;;;;5032228;28;20628;-68
2022/08/09 08:22:46;;;;;;;2.10;2.00;;;19.70;96.90;;;;;;5033709;28;20453;-75
2022/08/09 08:25:13;;;;;;;1.90;1.70;;;19.80;99.40;;;;;;5032579;28;20456;-76
2022/08/09 08:27:38;;;;;;;1.80;1.70;;;20.00;95.70;;;;;;5031125;28;20496;-75
2022/08/09 08:30:06;;;;;;;2.43;1.57;;;20.00;95.40;;;;;;5032900;28;20500;-76
2022/08/09 08:32:31;;;;;;;3.60;2.13;;;20.10;68.70;;;;;;5032174;28;20187;-72
2022/08/09 08:34:57;;;;;;;2.27;1.87;;;20.30;89.30;;;;;;5033591;28;20902;-71
2022/08/09 08:37:23;;;;;;;1.90;1.80;;;20.40;93.40;;;;;;5032699;28;20190;-76
2022/08/09 08:39:49;;;;;;;2.30;1.90;;;20.50;81.60;;;;;;5033368;28;20489;-75
2022/08/09 08:42:15;;;;;;;3.30;2.03;;;20.50;51.00;;;;;;5033366;28;20628;-74
2022/08/09 08:44:42;;;;;;;2.90;1.90;;;20.40;59.40;;;;;;5032810;28;20632;-69
2022/08/09 08:47:09;;;;;;;3.00;2.80;;;20.40;39.20;;;;;;5032311;28;20191;-69
2022/08/09 08:49:39;;;;;;;2.30;2.00;;;20.50;48.70;;;;;;5033529;28;20422;-69
2022/08/09 08:52:07;;;;;;;3.13;2.47;;;20.50;30.90;;;;;;5033105;28;20447;-73
2022/08/09 08:54:34;;;;;;;3.70;1.90;;;20.50;31.00;;;;;;5031930;28;20406;-68
2022/08/09 08:57:01;;;;;;;2.67;2.37;;;20.50;21.50;;;;;;5032483;28;20763;-73
2022/08/09 08:59:27;;;;;;;7.20;2.67;;;20.50;18.90;;;;;;5033153;28;20537;-73
2022/08/09 09:01:53;;;;;;;3.73;2.27;;;20.60;14.80;;;;;;5032184;28;20492;-74
2022/08/09 09:04:22;;;;;;;3.20;2.70;;;20.80;4.00;;;;;;5032908;28;20178;-73
2022/08/09 09:06:50;;;;;;;5.43;2.30;;;21.10;12.30;;;;;;5033795;28;20417;-67
2022/08/09 09:09:18;;;;;;;4.80;1.80;;;21.50;1.00;;;;;;5035926;28;20573;-68
2022/08/09 09:11:44;;;;;;;2.37;1.70;;;21.70;1.00;;;;;;5035599;28;20419;-73
2022/08/09 09:14:16;;;;;;;3.93;1.93;;;21.90;1.00;;;;;;5034930;28;20414;-68
2022/08/09 09:16:43;;;;;;;2.90;1.80;;;22.10;1.00;;;;;;5035804;28;20402;-74
2022/08/09 09:19:10;;;;;;;5.53;1.93;;;22.20;1.00;;;;;;5035036;28;20930;-68
2022/08/09 09:21:36;;;;;;;3.67;1.80;;;22.30;1.00;;;;;;5035136;28;20468;-74
2022/08/09 09:24:06;;;;;;;3.03;1.33;;;22.50;1.00;;;;;;5035874;28;20434;-72
2022/08/09 09:26:33;;;;;;;4.23;1.60;;;22.60;1.00;;;;;;5034577;28;20414;-68
2022/08/09 09:29:02;;;;;;;4.67;2.60;;;22.70;1.00;;;;;;5036211;28;20417;-74
2022/08/09 09:31:29;;;;;;;1.97;1.57;;;22.70;1.00;;;;;;5036279;28;20965;-74
2022/08/09 09:34:13;;;;;;;4.90;1.70;;;22.60;1.00;;;;;;5036567;28;20878;-73
2022/08/09 09:36:42;;;;;;;3.53;1.53;;;22.70;1.00;;;;;;5035678;28;20397;-67
2022/08/09 09:39:09;;;;;;;4.50;1.60;;;22.70;1.00;;;;;;5036183;28;20426;-73
2022/08/09 09:41:35;;;;;;;3.20;1.63;;;22.70;1.00;;;;;;5035926;28;20406;-73
2022/08/09 09:44:03;;;;;;;4.23;2.27;;;22.80;1.00;;;;;;5034574;28;20410;-73
2022/08/09 09:46:30;;;;;;;2.43;1.40;;;22.90;1.00;;;;;;5035115;28;20183;-73
2022/08/09 09:49:10;;;;;;;1.43;1.30;;;23.10;1.00;;;;;;5034948;28;20437;-66
2022/08/09 09:51:37;;;;;;;1.63;1.43;;;23.20;1.00;;;;;;5034904;28;20457;-72
2022/08/09 09:54:17;;;;;;;1.70;1.60;;;23.30;1.00;;;;;;5036324;28;20402;-73
2022/08/09 09:56:46;;;;;;;2.60;1.50;;;23.40;1.00;;;;;;5035416;28;20401;-73
2022/08/09 09:59:18;;;;;;;1.80;1.70;;;23.40;1.00;;;;;;5034293;28;20422;-73
2022/08/09 10:01:44;;;;;;;1.83;1.60;;;23.30;1.00;;;;;;5034801;28;20472;-72
2022/08/09 10:04:18;;;;;;;2.57;1.30;;;23.40;1.00;;;;;;5035931;28;20406;-73
2022/08/09 10:06:46;;;;;;;2.10;1.90;;;23.40;99.90;;;;;;5035180;28;20172;-67
2022/08/09 10:09:13;;;;;;;2.07;1.90;;;23.50;1.00;;;;;;5035946;28;20470;-67
2022/08/09 10:11:39;;;;;;;4.10;1.27;;;23.60;99.90;;;;;;5035747;28;20453;-66
2022/08/09 10:14:05;;;;;;;3.87;1.67;;;23.80;99.90;;;;;;5035788;28;20755;-73
2022/08/09 10:16:36;;;;;;;2.73;1.60;;;23.90;99.90;;;;;;5034930;28;20399;-67
2022/08/09 10:19:04;;;;;;;3.87;1.43;;;24.20;99.90;;;;;;5035103;28;20209;-73
2022/08/09 10:21:30;;;;;;;3.13;1.47;;;24.40;99.90;;;;;;5034389;28;20423;-73
2022/08/09 10:24:00;;;;;;;2.40;1.37;;;24.30;99.90;;;;;;5034534;28;20473;-74
2022/08/09 10:26:26;;;;;;;2.00;1.33;;;24.30;99.90;;;;;;5034920;28;20434;-66
2022/08/09 10:28:52;;;;;;;1.20;1.10;;;24.30;99.90;;;;;;5035340;28;20469;-66
2022/08/09 10:31:19;;;;;;;2.50;1.60;;;24.50;99.90;;;;;;5034271;28;20464;-74
2022/08/09 10:33:46;;;;;;;1.33;1.23;;;24.80;99.90;;;;;;5034695;28;20407;-74
2022/08/09 10:36:14;;;;;;;3.20;2.23;;;25.20;99.90;;;;;;5034365;28;20506;-66
2022/08/09 10:38:42;;;;;;;5.80;1.80;;;25.60;99.90;;;;;;5035346;28;20998;-68
2022/08/09 10:41:08;;;;;;;4.33;1.70;;;25.50;99.90;;;;;;5035357;28;20414;-66
2022/08/09 10:43:35;;;;;;;1.40;1.30;;;25.80;99.90;;;;;;5035343;28;20489;-68
2022/08/09 10:46:19;;;;;;;1.47;1.37;;;25.90;99.90;;;;;;5034466;28;20509;-67
2022/08/09 10:48:59;;;;;;;5.60;1.63;;;26.20;99.90;;;;;;5035067;28;20934;-68
2022/08/09 10:52:02;;;;;;;2.43;1.70;;;26.40;99.90;;;;;;5033825;28;20982;-68
2022/08/09 10:54:28;;;;;;;2.00;1.47;;;26.50;99.90;;;;;;5034724;28;20448;-68
2022/08/09 10:57:10;;;;;;;4.07;1.53;;;26.50;99.90;;;;;;5034274;28;20871;-72
2022/08/09 10:59:37;;;;;;;1.80;1.50;;;26.80;99.90;;;;;;5035071;28;20394;-76
2022/08/09 11:02:11;;;;;;;1.80;1.20;;;26.60;99.90;;;;;;5033665;28;20982;-74
2022/08/09 11:04:37;;;;;;;2.43;1.60;;;26.40;99.90;;;;;;5034989;28;20393;-66
2022/08/09 11:07:03;;;;;;;1.53;1.10;;;26.50;99.90;;;;;;5033941;28;20399;-75
2022/08/09 11:09:37;;;;;;;5.00;1.37;;;26.80;99.90;;;;;;5033671;28;20179;-68
2022/08/09 11:12:23;;;;;;;1.97;1.20;;;27.10;99.90;;;;;;5034274;28;20654;-67
2022/08/09 11:14:54;;;;;;;4.60;1.60;;;27.60;99.90;;;;;;5034540;28;20812;-76
2022/08/09 11:17:20;;;;;;;1.30;1.17;;;27.70;99.90;;;;;;5033779;28;20414;-76
2022/08/09 11:20:09;;;;;;;2.77;1.10;;;27.50;99.90;;;;;;5034485;28;20737;-68
2022/08/09 11:22:43;;;;;;;1.77;1.10;;;27.30;99.90;;;;;;5034453;28;20528;-67
2022/08/09 11:25:16;;;;;;;2.63;1.27;;;27.10;99.90;;;;;;5034322;28;21117;-68
2022/08/09 11:27:49;;;;;;;2.70;1.37;;;27.20;99.90;;;;;;5032646;28;20438;-76
2022/08/09 11:30:21;;;;;;;1.30;1.20;;;27.60;99.90;;;;;;5033477;28;20481;-75
2022/08/09 11:33:00;;;;;;;1.13;0.93;;;28.30;99.90;;;;;;5033343;28;20407;-68
2022/08/09 11:35:41;;;;;;;1.97;0.90;;;28.70;99.90;;;;;;5034320;28;20406;-69
2022/08/09 11:38:23;;;;;;;3.30;1.00;;;29.20;99.90;;;;;;5032478;28;20517;-75
2022/08/09 11:40:50;;;;;;;1.37;1.27;;;29.20;99.90;;;;;;5034309;28;20406;-68
2022/08/09 11:43:27;;;;;;;1.10;0.90;;;29.20;99.90;;;;;;5032915;28;20489;-69
2022/08/09 11:45:56;;;;;;;4.80;1.30;;;29.20;99.90;;;;;;5034232;28;20976;-69
2022/08/09 11:48:26;;;;;;;2.13;1.20;;;29.40;99.90;;;;;;5032234;28;20458;-68
2022/08/09 11:51:00;;;;;;;1.33;1.10;;;29.10;99.90;;;;;;5032336;28;20540;-68
2022/08/09 11:53:29;;;;;;;3.10;1.03;;;29.40;99.90;;;;;;5032663;28;20437;-75
2022/08/09 11:55:56;;;;;;;1.23;1.13;;;29.50;99.90;;;;;;5032560;28;20430;-69
2022/08/09 11:58:29;;;;;;;1.63;0.93;;;30.00;99.90;;;;;;5032310;28;20434;-68
2022/08/09 12:01:02;;;;;;;2.80;0.83;;;30.40;99.90;;;;;;5032631;28;20802;-75
2022/08/09 12:03:28;;;;;;;1.00;0.80;;;30.60;99.90;;;;;;5033801;28;20410;-68
2022/08/09 12:05:57;;;;;;;1.00;0.80;;;30.90;99.90;;;;;;5033581;28;20406;-75
2022/08/09 12:08:24;;;;;;;2.53;0.80;;;31.10;99.90;;;;;;5032688;28;20468;-74
2022/08/09 12:10:55;;;;;;;1.60;1.30;;;31.00;99.90;;;;;;5032482;28;20971;-74
2022/08/09 12:13:40;;;;;;;1.33;1.00;;;31.40;99.90;;;;;;5033663;28;20394;-73
2022/08/09 12:16:12;;;;;;;0.90;0.70;;;31.50;99.90;;;;;;5033046;28;20398;-73
2022/08/09 12:18:41;;;;;;;1.77;1.00;;;31.60;99.90;;;;;;5032161;28;21008;-74
2022/08/09 12:21:08;;;;;;;1.47;0.70;;;31.70;99.90;;;;;;5031999;28;20410;-73
2022/08/09 12:23:40;;;;;;;1.00;0.90;;;31.90;99.90;;;;;;5033331;28;20437;-72
2022/08/09 12:26:06;;;;;;;1.33;1.13;;;32.10;99.90;;;;;;5031879;28;20410;-73
2022/08/09 12:28:33;;;;;;;1.00;0.83;;;32.30;99.90;;;;;;5033243;28;20934;-71
2022/08/09 12:31:00;;;;;;;1.10;0.70;;;32.20;99.90;;;;;;5033547;28;20549;-71
2022/08/09 12:33:26;;;;;;;1.10;0.80;;;32.40;99.90;;;;;;5033228;28;20480;-76
2022/08/09 12:36:05;;;;;;;4.33;0.80;;;32.70;99.90;;;;;;5032710;28;20394;-72
2022/08/09 12:38:32;;;;;;;1.27;0.80;;;32.80;99.90;;;;;;5033332;28;20414;-74
2022/08/09 12:40:58;;;;;;;1.60;0.93;;;32.80;99.90;;;;;;5033255;28;20898;-72
2022/08/09 12:43:26;;;;;;;1.00;0.80;;;32.60;99.90;;;;;;5037000;28;20448;-73
2022/08/09 12:45:54;;;;;;;0.93;0.70;;;32.20;99.90;;;;;;5036724;28;20430;-72
2022/08/09 12:48:20;;;;;;;1.23;0.80;;;31.90;99.90;;;;;;5036403;28;20461;-73
2022/08/09 12:50:46;;;;;;;1.10;0.80;;;31.30;99.90;;;;;;5036967;28;20954;-73
2022/08/09 12:53:27;;;;;;;1.20;0.80;;;30.70;99.90;;;;;;5036087;28;21013;-68